Time;durP1;ratioP1;P1;durP2;ratioP2;P2;SDS_P1;SDS_P2;PMS_P1;PMS_P2;Temp;Humidity;BMP_temperature;BMP_pressure;BME280_temperature;BME280_humidity;BME280_pressure;Samples;Min_cycle;Max_cycle;Signal;HPM_P1;HPM_P2
2023/04/23 00:00:47;;;;;;;11.37;10.17;;;;;;;11.94;100.00;99385.38;4970544;28;20302;-62
2023/04/23 00:03:13;;;;;;;11.73;10.53;;;;;;;11.94;100.00;99382.81;4973071;28;20184;-62
2023/04/23 00:05:40;;;;;;;12.67;11.37;;;;;;;11.89;100.00;99389.22;4989935;28;20195;-61
2023/04/23 00:08:07;;;;;;;14.33;12.83;;;;;;;11.94;100.00;99390.53;4979043;28;20184;-62
2023/04/23 00:10:33;;;;;;;12.30;11.00;;;;;;;11.99;100.00;99389.41;4964816;28;20655;-62
2023/04/23 00:12:58;;;;;;;10.80;9.73;;;;;;;11.99;100.00;99387.66;4978536;28;20287;-61
2023/04/23 00:15:24;;;;;;;10.93;9.93;;;;;;;11.99;100.00;99392.00;4972937;28;20184;-60
2023/04/23 00:17:50;;;;;;;10.40;9.47;;;;;;;11.94;100.00;99390.53;4975157;28;20264;-60
2023/04/23 00:20:16;;;;;;;11.67;10.63;;;;;;;11.94;100.00;99390.53;4967410;28;20196;-61
2023/04/23 00:22:42;;;;;;;11.77;10.30;;;;;;;11.89;100.00;99392.59;4983366;28;20196;-61
2023/04/23 00:25:09;;;;;;;11.10;10.10;;;;;;;11.91;100.00;99395.09;4955580;28;20694;-61
2023/04/23 00:27:34;;;;;;;11.10;10.00;;;;;;;11.91;100.00;99395.09;4975009;28;20541;-61
2023/04/23 00:29:59;;;;;;;11.80;10.70;;;;;;;11.92;100.00;99386.41;4975378;28;20184;-61
2023/04/23 00:32:25;;;;;;;12.53;11.27;;;;;;;11.86;100.00;99392.84;4979164;28;20231;-61
2023/04/23 00:34:51;;;;;;;13.03;11.77;;;;;;;11.88;100.00;99400.44;4971881;28;20196;-62
2023/04/23 00:37:16;;;;;;;12.50;11.20;;;;;;;11.84;100.00;99399.03;4973675;28;20290;-61
2023/04/23 00:39:42;;;;;;;11.90;10.83;;;;;;;11.82;100.00;99400.88;4974191;28;20634;-61
2023/04/23 00:42:11;;;;;;;12.93;11.63;;;;;;;11.84;100.00;99401.63;4980094;28;20238;-61
2023/04/23 00:44:37;;;;;;;12.53;11.07;;;;;;;11.82;100.00;99395.72;4989299;28;20179;-61
2023/04/23 00:47:02;;;;;;;12.97;11.67;;;;;;;11.85;100.00;99390.38;4988974;28;20269;-61
2023/04/23 00:49:28;;;;;;;13.33;12.00;;;;;;;11.72;100.00;99393.81;4974255;28;20184;-60
2023/04/23 00:51:54;;;;;;;14.93;12.93;;;;;;;11.73;100.00;99395.47;4962791;28;20232;-60
2023/04/23 00:54:20;;;;;;;14.77;12.70;;;;;;;11.67;100.00;99382.19;4974235;28;20188;-60
2023/04/23 00:56:47;;;;;;;14.33;12.93;;;;;;;11.71;100.00;99386.19;4972986;28;20184;-61
2023/04/23 00:59:12;;;;;;;14.90;12.73;;;;;;;11.71;100.00;99387.03;4972723;28;20223;-60
2023/04/23 01:01:38;;;;;;;14.13;12.83;;;;;;;11.69;100.00;99391.44;4976781;28;20262;-60
2023/04/23 01:04:03;;;;;;;14.00;12.77;;;;;;;11.65;100.00;99389.19;4977052;28;20204;-61
2023/04/23 01:06:30;;;;;;;15.33;13.83;;;;;;;11.62;100.00;99392.81;4974129;28;20187;-60
2023/04/23 01:08:56;;;;;;;13.67;12.50;;;;;;;11.66;100.00;99398.56;4972848;28;20245;-62
2023/04/23 01:11:21;;;;;;;13.77;12.47;;;;;;;11.65;100.00;99397.75;4977430;28;20250;-60
2023/04/23 01:13:47;;;;;;;14.73;13.33;;;;;;;11.66;100.00;99390.84;4991517;28;20539;-60
2023/04/23 01:16:12;;;;;;;14.93;13.53;;;;;;;11.65;100.00;99387.47;4992648;28;20184;-60
2023/04/23 01:18:39;;;;;;;14.50;13.23;;;;;;;11.64;100.00;99383.22;4991782;28;20191;-60
2023/04/23 01:21:06;;;;;;;14.13;12.87;;;;;;;11.65;100.00;99387.47;4984567;28;20265;-61
2023/04/23 01:23:31;;;;;;;14.63;13.23;;;;;;;11.74;100.00;99397.09;5007817;28;20689;-61
2023/04/23 01:25:57;;;;;;;15.93;14.33;;;;;;;11.65;100.00;99399.50;4976259;28;20184;-61
2023/04/23 01:28:23;;;;;;;14.90;13.60;;;;;;;11.68;100.00;99400.09;4973520;28;20192;-61
2023/04/23 01:30:49;;;;;;;14.27;13.07;;;;;;;11.70;100.00;99398.25;4969481;28;20572;-61
2023/04/23 01:33:15;;;;;;;16.07;14.47;;;;;;;11.73;100.00;99392.91;4971360;28;20190;-60
2023/04/23 01:35:42;;;;;;;14.70;13.40;;;;;;;11.65;100.00;99404.66;4974201;28;20671;-62
2023/04/23 01:38:09;;;;;;;14.57;13.23;;;;;;;11.71;100.00;99399.91;4988358;28;20258;-61
2023/04/23 01:40:36;;;;;;;16.10;14.27;;;;;;;11.64;100.00;99406.41;4991573;28;20746;-61
2023/04/23 01:43:01;;;;;;;15.83;14.40;;;;;;;11.60;100.00;99405.81;5006291;28;20245;-60
2023/04/23 01:45:26;;;;;;;15.47;14.07;;;;;;;11.59;100.00;99408.50;4981999;28;20184;-61
2023/04/23 01:47:52;;;;;;;15.30;13.90;;;;;;;11.61;100.00;99414.38;4973400;28;20544;-61
2023/04/23 01:50:18;;;;;;;15.10;13.87;;;;;;;11.67;100.00;99423.41;4964039;28;20207;-61
2023/04/23 01:52:44;;;;;;;16.33;14.27;;;;;;;11.62;100.00;99416.00;4971278;28;20184;-61
2023/04/23 01:55:10;;;;;;;16.47;14.57;;;;;;;11.57;100.00;99416.34;4987777;28;20584;-61
2023/04/23 01:57:35;;;;;;;16.67;15.17;;;;;;;11.59;100.00;99418.78;4989660;28;20245;-61
2023/04/23 02:00:08;;;;;;;15.77;13.77;;;;;;;11.54;100.00;99418.28;4989979;28;20245;-62
2023/04/23 02:02:38;;;;;;;15.77;14.27;;;;;;;11.53;100.00;99414.88;4955034;28;20258;-61
2023/04/23 02:05:08;;;;;;;15.23;13.77;;;;;;;11.43;100.00;99419.84;4963752;28;20246;-61
2023/04/23 02:07:35;;;;;;;15.40;13.90;;;;;;;11.60;100.00;99421.25;4969554;28;20180;-61
2023/04/23 02:10:01;;;;;;;15.27;13.73;;;;;;;11.69;100.00;99416.41;4970665;28;20195;-63
2023/04/23 02:12:26;;;;;;;15.53;14.10;;;;;;;11.61;100.00;99420.34;4994965;28;20219;-62
2023/04/23 02:14:53;;;;;;;15.23;13.80;;;;;;;11.63;100.00;99418.47;4991313;28;20709;-61
2023/04/23 02:17:20;;;;;;;14.77;13.57;;;;;;;11.61;100.00;99417.75;4977296;28;20191;-60
2023/04/23 02:19:45;;;;;;;15.77;14.27;;;;;;;11.55;100.00;99417.38;4992280;28;20239;-62
2023/04/23 02:22:11;;;;;;;16.00;14.37;;;;;;;11.60;100.00;99418.69;4996224;28;20238;-61
2023/04/23 02:24:37;;;;;;;14.70;13.47;;;;;;;11.50;100.00;99422.00;4991592;28;20215;-62
2023/04/23 02:27:03;;;;;;;15.07;13.67;;;;;;;11.53;100.00;99426.94;4978826;28;20226;-61
2023/04/23 02:29:28;;;;;;;15.10;13.70;;;;;;;11.51;100.00;99429.63;4991780;28;20195;-60
2023/04/23 02:31:53;;;;;;;14.33;12.83;;;;;;;11.43;100.00;99429.34;4994550;28;20226;-61
2023/04/23 02:34:19;;;;;;;15.23;13.90;;;;;;;11.41;100.00;99433.75;5006603;28;20205;-61
2023/04/23 02:36:44;;;;;;;15.37;13.83;;;;;;;11.43;100.00;99440.44;4986804;28;20238;-61
2023/04/23 02:39:09;;;;;;;16.50;14.97;;;;;;;11.44;100.00;99438.72;4983366;28;20196;-61
2023/04/23 02:41:35;;;;;;;15.77;14.37;;;;;;;11.40;100.00;99434.69;4975947;28;20254;-61
2023/04/23 02:44:00;;;;;;;16.03;14.60;;;;;;;11.55;100.00;99437.97;4986107;28;20202;-61
2023/04/23 02:46:25;;;;;;;15.53;14.17;;;;;;;11.49;100.00;99444.38;4977090;28;20191;-63
2023/04/23 02:48:51;;;;;;;15.67;14.37;;;;;;;11.50;100.00;99437.44;4972774;28;20627;-62
2023/04/23 02:51:16;;;;;;;15.20;13.60;;;;;;;11.52;100.00;99433.03;4972184;28;20694;-61
2023/04/23 02:53:41;;;;;;;15.13;13.63;;;;;;;11.43;100.00;99432.72;4978270;28;20241;-62
2023/04/23 02:56:07;;;;;;;14.93;13.63;;;;;;;11.41;100.00;99438.91;4972954;28;20177;-61
2023/04/23 02:58:32;;;;;;;15.03;13.63;;;;;;;11.41;100.00;99437.16;4972955;28;20181;-61
2023/04/23 03:00:58;;;;;;;15.07;13.87;;;;;;;11.40;100.00;99443.25;4955938;28;20594;-61
2023/04/23 03:03:25;;;;;;;15.03;13.80;;;;;;;11.34;100.00;99443.66;4965553;28;20180;-60
2023/04/23 03:05:51;;;;;;;15.30;13.70;;;;;;;11.44;100.00;99442.09;4974727;28;20235;-62
2023/04/23 03:08:17;;;;;;;15.20;13.80;;;;;;;11.35;100.00;99439.31;4974407;28;20187;-66
2023/04/23 03:10:42;;;;;;;14.80;13.50;;;;;;;11.41;100.00;99444.06;4970893;28;20621;-61
2023/04/23 03:13:07;;;;;;;14.60;13.30;;;;;;;11.37;100.00;99446.00;4985391;28;20219;-61
2023/04/23 03:15:33;;;;;;;16.27;13.37;;;;;;;11.37;100.00;99452.94;4985781;28;20276;-61
2023/04/23 03:18:00;;;;;;;14.63;13.43;;;;;;;11.33;100.00;99447.16;5006086;28;20195;-61
2023/04/23 03:20:25;;;;;;;14.50;13.17;;;;;;;11.32;100.00;99445.50;4987012;28;20227;-60
2023/04/23 03:22:50;;;;;;;14.80;13.50;;;;;;;11.36;100.00;99441.81;5006246;28;20183;-62
2023/04/23 03:25:16;;;;;;;13.80;12.60;;;;;;;11.41;100.00;99439.75;4994284;28;20175;-62
2023/04/23 03:27:42;;;;;;;13.40;12.20;;;;;;;11.42;100.00;99445.72;4994740;28;20532;-62
2023/04/23 03:30:08;;;;;;;13.60;12.40;;;;;;;11.43;100.00;99440.44;4969639;28;20168;-61
2023/04/23 03:32:35;;;;;;;14.47;13.20;;;;;;;11.50;100.00;99440.88;4973559;28;20273;-61
2023/04/23 03:35:00;;;;;;;13.47;12.37;;;;;;;11.43;100.00;99442.22;4980139;28;20182;-61
2023/04/23 03:37:26;;;;;;;13.77;12.57;;;;;;;11.45;100.00;99440.38;4984034;28;20228;-61
2023/04/23 03:39:51;;;;;;;13.90;12.70;;;;;;;11.40;100.00;99432.09;4974236;28;20204;-61
2023/04/23 03:42:19;;;;;;;12.83;11.83;;;;;;;11.48;100.00;99429.84;4968506;28;20686;-66
2023/04/23 03:44:44;;;;;;;13.50;12.40;;;;;;;11.45;100.00;99418.00;4975677;28;20634;-60
2023/04/23 03:47:10;;;;;;;13.23;12.13;;;;;;;11.56;100.00;99424.16;4975462;28;20184;-60
2023/04/23 03:49:35;;;;;;;13.93;12.47;;;;;;;11.54;100.00;99419.09;4975221;28;20188;-60
2023/04/23 03:52:03;;;;;;;13.00;11.80;;;;;;;11.55;100.00;99415.59;4982678;28;20233;-60
2023/04/23 03:54:28;;;;;;;12.77;11.67;;;;;;;11.50;100.00;99416.84;4975045;28;20270;-60
2023/04/23 03:56:53;;;;;;;13.10;12.00;;;;;;;11.55;100.00;99418.19;4974921;28;20179;-60
2023/04/23 03:59:19;;;;;;;12.40;11.30;;;;;;;11.59;100.00;99429.91;4991501;28;20192;-60
2023/04/23 04:01:47;;;;;;;12.63;11.43;;;;;;;11.53;100.00;99439.81;4996482;28;20689;-60
2023/04/23 04:04:12;;;;;;;13.27;12.07;;;;;;;11.43;100.00;99434.47;4975867;28;20202;-60
2023/04/23 04:06:38;;;;;;;12.83;11.73;;;;;;;11.40;100.00;99432.09;4993434;28;20180;-60
2023/04/23 04:09:03;;;;;;;12.67;11.60;;;;;;;11.37;100.00;99440.88;4993248;28;20190;-61
2023/04/23 04:11:28;;;;;;;12.40;10.97;;;;;;;11.43;100.00;99425.00;4994449;28;20278;-60
2023/04/23 04:13:53;;;;;;;12.17;10.93;;;;;;;11.40;100.00;99432.09;4996464;28;20666;-60
2023/04/23 04:16:19;;;;;;;13.60;12.40;;;;;;;11.26;100.00;99439.03;4993799;28;20188;-60
2023/04/23 04:18:44;;;;;;;12.43;11.40;;;;;;;11.25;100.00;99442.53;4993098;28;20185;-60
2023/04/23 04:21:09;;;;;;;12.70;11.60;;;;;;;11.30;100.00;99447.38;4992145;28;20629;-60
2023/04/23 04:23:35;;;;;;;12.17;11.07;;;;;;;11.30;100.00;99444.81;4999499;28;20187;-60
2023/04/23 04:26:01;;;;;;;12.20;11.20;;;;;;;11.20;100.00;99443.78;4993067;28;20180;-60
2023/04/23 04:28:26;;;;;;;12.10;11.07;;;;;;;11.20;100.00;99443.78;4992321;28;20266;-61
2023/04/23 04:30:52;;;;;;;11.53;10.53;;;;;;;11.22;100.00;99445.31;4989172;28;20222;-60
2023/04/23 04:33:19;;;;;;;11.53;10.53;;;;;;;11.18;100.00;99445.66;5006395;28;20270;-60
2023/04/23 04:35:45;;;;;;;11.07;10.17;;;;;;;11.16;100.00;99432.03;4991605;28;20176;-60
2023/04/23 04:38:11;;;;;;;12.50;10.80;;;;;;;11.12;100.00;99441.72;4989619;28;20227;-60
2023/04/23 04:40:36;;;;;;;11.30;10.33;;;;;;;11.17;100.00;99439.66;4987051;28;20238;-61
2023/04/23 04:43:04;;;;;;;11.07;10.13;;;;;;;11.18;100.00;99438.72;5002366;28;20241;-61
2023/04/23 04:45:29;;;;;;;10.73;9.80;;;;;;;11.17;100.00;99438.84;4985879;28;20196;-60
2023/04/23 04:47:54;;;;;;;11.70;10.80;;;;;;;11.16;100.00;99437.19;4988543;28;20199;-60
2023/04/23 04:50:19;;;;;;;10.33;9.53;;;;;;;11.20;100.00;99438.63;4984475;28;20175;-60
2023/04/23 04:52:45;;;;;;;11.60;10.60;;;;;;;11.19;100.00;99442.97;4989593;28;20191;-60
2023/04/23 04:55:10;;;;;;;10.00;9.10;;;;;;;11.22;100.00;99437.59;4992385;28;20320;-60
2023/04/23 04:57:35;;;;;;;10.57;9.77;;;;;;;11.33;100.00;99442.00;4991021;28;20180;-61
2023/04/23 05:00:17;;;;;;;11.00;10.10;;;;;;;11.33;100.00;99441.19;4993116;28;20243;-62
2023/04/23 05:02:42;;;;;;;11.87;10.77;;;;;;;11.30;100.00;99440.47;4968455;28;20643;-61
2023/04/23 05:05:08;;;;;;;10.83;9.60;;;;;;;11.25;100.00;99439.97;4992910;28;20202;-61
2023/04/23 05:07:33;;;;;;;10.80;9.87;;;;;;;11.22;100.00;99441.91;4991890;28;20187;-60
2023/04/23 05:09:58;;;;;;;10.83;9.70;;;;;;;11.15;100.00;99441.53;4992468;28;20623;-61
2023/04/23 05:12:24;;;;;;;10.97;10.00;;;;;;;11.09;100.00;99434.22;4997099;28;20219;-60
2023/04/23 05:14:49;;;;;;;11.27;10.27;;;;;;;11.03;100.00;99440.59;4992386;28;20642;-59
2023/04/23 05:17:14;;;;;;;10.33;9.27;;;;;;;11.11;100.00;99442.63;4988077;28;20184;-60
2023/04/23 05:19:39;;;;;;;11.13;10.07;;;;;;;11.09;100.00;99447.09;4973374;28;20207;-60
2023/04/23 05:22:05;;;;;;;10.43;9.57;;;;;;;11.11;100.00;99451.19;4977686;28;20219;-60
2023/04/23 05:24:30;;;;;;;10.27;9.47;;;;;;;11.21;100.00;99448.84;4973053;28;20188;-60
2023/04/23 05:26:56;;;;;;;10.93;9.83;;;;;;;11.15;100.00;99449.25;4973735;28;20598;-60
2023/04/23 05:29:21;;;;;;;9.90;8.93;;;;;;;11.20;100.00;99438.63;4972335;28;20183;-61
2023/04/23 05:31:46;;;;;;;9.80;8.97;;;;;;;11.36;100.00;99448.69;4971993;28;20218;-61
2023/04/23 05:34:11;;;;;;;11.13;10.10;;;;;;;11.39;100.00;99440.78;4975848;28;20598;-60
2023/04/23 05:36:37;;;;;;;9.33;8.53;;;;;;;11.50;100.00;99442.59;4972996;28;20725;-61
2023/04/23 05:39:02;;;;;;;10.00;9.00;;;;;;;11.46;100.00;99447.97;4973180;28;20217;-61
2023/04/23 05:41:27;;;;;;;8.77;8.00;;;;;;;11.40;100.00;99453.53;4973654;28;20310;-60
2023/04/23 05:43:53;;;;;;;8.87;8.17;;;;;;;11.50;100.00;99455.47;4977314;28;20199;-60
2023/04/23 05:46:18;;;;;;;9.80;8.87;;;;;;;11.53;100.00;99457.84;4972653;28;20204;-61
2023/04/23 05:48:43;;;;;;;9.43;8.57;;;;;;;11.58;100.00;99459.16;4973222;28;20188;-60
2023/04/23 05:51:10;;;;;;;9.67;8.77;;;;;;;11.61;100.00;99458.97;4971262;28;20257;-61
2023/04/23 05:53:35;;;;;;;8.70;8.07;;;;;;;11.69;100.00;99462.78;4970573;28;20176;-61
2023/04/23 05:56:00;;;;;;;8.87;7.67;;;;;;;11.75;100.00;99464.94;4958600;28;20618;-60
2023/04/23 05:58:25;;;;;;;8.70;8.00;;;;;;;11.84;100.00;99459.13;4964177;28;20196;-61
2023/04/23 06:00:52;;;;;;;7.93;7.23;;;;;;;11.67;100.00;99460.31;4948914;28;20591;-63
2023/04/23 06:03:17;;;;;;;7.20;6.70;;;;;;;11.73;100.00;99456.47;4961769;28;20194;-61
2023/04/23 06:05:42;;;;;;;8.00;7.20;;;;;;;11.85;100.00;99462.53;4954213;28;20177;-61
2023/04/23 06:08:08;;;;;;;8.47;7.67;;;;;;;11.99;100.00;99462.41;4961483;28;20213;-62
2023/04/23 06:10:33;;;;;;;8.10;7.30;;;;;;;12.13;100.00;99450.28;4950518;28;20246;-62
2023/04/23 06:12:58;;;;;;;8.00;7.20;;;;;;;12.07;100.00;99454.13;4978437;28;20185;-61
2023/04/23 06:15:25;;;;;;;8.57;7.73;;;;;;;12.14;100.00;99457.91;4957713;28;20659;-60
2023/04/23 06:17:51;;;;;;;8.10;7.33;;;;;;;12.07;100.00;99464.44;4953075;28;20192;-61
2023/04/23 06:20:17;;;;;;;7.87;7.17;;;;;;;12.31;100.00;99461.06;4950732;28;20254;-66
2023/04/23 06:22:44;;;;;;;7.70;7.10;;;;;;;12.36;100.00;99459.75;4972294;28;20188;-61
2023/04/23 06:25:09;;;;;;;7.97;7.37;;;;;;;12.38;100.00;99457.91;4979551;28;20176;-61
2023/04/23 06:27:34;;;;;;;7.43;6.83;;;;;;;12.51;100.00;99463.00;4957446;28;20535;-61
2023/04/23 06:30:00;;;;;;;7.80;7.10;;;;;;;12.59;100.00;99471.00;4953842;28;20534;-61
2023/04/23 06:32:25;;;;;;;6.50;5.90;;;;;;;12.91;100.00;99472.97;4963616;28;20221;-62
2023/04/23 06:34:50;;;;;;;10.13;6.30;;;;;;;13.59;100.00;99467.06;4960237;28;20360;-60
2023/04/23 06:37:15;;;;;;;6.77;6.17;;;;;;;14.62;100.00;99471.00;4960311;28;20236;-60
2023/04/23 06:39:41;;;;;;;5.97;5.37;;;;;;;15.70;100.00;99452.59;4965495;28;20673;-62
2023/04/23 06:42:06;;;;;;;5.90;5.10;;;;;;;15.70;100.00;99450.00;4968021;28;20234;-62
2023/04/23 06:44:31;;;;;;;5.67;5.23;;;;;;;15.39;100.00;99450.84;4964941;28;20604;-61
2023/04/23 06:46:56;;;;;;;5.90;5.30;;;;;;;15.11;100.00;99448.03;4979760;28;20190;-62
2023/04/23 06:49:22;;;;;;;6.40;5.70;;;;;;;14.67;100.00;99442.19;4980823;28;20262;-62
2023/04/23 06:51:47;;;;;;;6.23;5.70;;;;;;;15.49;100.00;99430.16;4979641;28;20231;-61
2023/04/23 06:54:12;;;;;;;5.50;4.90;;;;;;;17.49;100.00;99426.19;4960967;28;20227;-62
2023/04/23 06:56:38;;;;;;;4.53;4.13;;;;;;;18.48;100.00;99440.19;4966823;28;20544;-62
2023/04/23 06:59:03;;;;;;;4.20;3.80;;;;;;;20.45;100.00;99431.50;4975036;28;20187;-61
2023/04/23 07:01:29;;;;;;;4.07;3.77;;;;;;;22.36;87.44;99419.22;4949566;28;20628;-62
2023/04/23 07:03:54;;;;;;;6.60;4.20;;;;;;;23.94;77.40;99420.88;4973959;28;20718;-62
2023/04/23 07:06:20;;;;;;;4.30;3.40;;;;;;;24.64;64.31;99413.94;4994733;28;20193;-60
2023/04/23 07:08:45;;;;;;;4.78;4.38;;;;;;;24.56;61.20;99410.66;4978925;28;20248;-61
2023/04/23 07:11:11;;;;;;;6.70;3.92;;;;;;;25.06;62.05;99415.84;4970997;28;20262;-60
2023/04/23 07:13:36;;;;;;;4.60;4.20;;;;;;;24.53;61.15;99427.63;4978668;28;20520;-62
2023/04/23 07:16:02;;;;;;;4.50;3.53;;;;;;;24.65;59.70;99435.84;4992274;28;20254;-61
2023/04/23 07:18:27;;;;;;;5.45;3.88;;;;;;;23.31;70.43;99443.19;4999702;28;20615;-61
2023/04/23 07:20:52;;;;;;;4.65;3.97;;;;;;;23.58;69.90;99422.53;4979231;28;20231;-60
2023/04/23 07:23:18;;;;;;;5.05;4.22;;;;;;;25.19;61.00;99428.25;4988543;28;20234;-62
2023/04/23 07:25:43;;;;;;;4.57;4.10;;;;;;;25.69;54.20;99426.22;4991935;28;20298;-60
2023/04/23 07:28:08;;;;;;;4.03;3.63;;;;;;;25.98;50.49;99428.69;4975689;28;20677;-60
2023/04/23 07:30:33;;;;;;;4.00;3.60;;;;;;;27.45;46.23;99431.16;4948239;28;20298;-60
2023/04/23 07:32:59;;;;;;;3.58;3.28;;;;;;;28.21;43.37;99425.19;4966612;28;20279;-60
2023/04/23 07:35:25;;;;;;;3.28;3.05;;;;;;;27.19;45.23;99435.50;4955408;28;20188;-61
2023/04/23 07:37:52;;;;;;;3.47;3.17;;;;;;;24.79;51.98;99428.84;4970786;28;20248;-61
2023/04/23 07:40:20;;;;;;;3.65;3.35;;;;;;;22.61;69.33;99423.44;4963207;28;20204;-61
2023/04/23 07:42:45;;;;;;;4.25;3.85;;;;;;;20.84;85.72;99422.16;4967451;28;20189;-61
2023/04/23 07:45:11;;;;;;;4.20;3.90;;;;;;;19.09;98.88;99421.19;4955128;28;20206;-59
2023/04/23 07:47:36;;;;;;;5.03;3.63;;;;;;;18.27;100.00;99421.44;4955667;28;20193;-63
2023/04/23 07:50:01;;;;;;;4.93;4.53;;;;;;;17.90;100.00;99412.81;4955349;28;20197;-62
2023/04/23 07:52:26;;;;;;;4.50;4.10;;;;;;;17.24;100.00;99405.13;4982095;28;20227;-61
2023/04/23 07:54:52;;;;;;;4.53;4.00;;;;;;;16.60;100.00;99407.47;4993880;28;20199;-60
2023/04/23 07:57:17;;;;;;;5.73;4.20;;;;;;;16.75;100.00;99409.63;4993644;28;20190;-61
2023/04/23 07:59:42;;;;;;;5.20;3.97;;;;;;;16.66;100.00;99406.09;4975147;28;20199;-61
2023/04/23 08:02:08;;;;;;;4.87;4.40;;;;;;;16.44;100.00;99392.47;4979234;28;20265;-61
2023/04/23 08:04:33;;;;;;;4.67;4.27;;;;;;;16.24;100.00;99411.63;4974793;28;20188;-61
2023/04/23 08:06:58;;;;;;;4.87;3.93;;;;;;;16.38;100.00;99410.38;4974725;28;20230;-65
2023/04/23 08:09:26;;;;;;;5.97;4.07;;;;;;;16.28;100.00;99400.00;4980677;28;20650;-60
2023/04/23 08:11:52;;;;;;;6.07;4.17;;;;;;;16.85;100.00;99399.22;4996880;28;20305;-60
2023/04/23 08:14:17;;;;;;;6.37;3.77;;;;;;;17.21;100.00;99395.00;4994884;28;20298;-64
2023/04/23 08:16:43;;;;;;;4.93;3.67;;;;;;;17.47;100.00;99393.50;4980554;28;20183;-61
2023/04/23 08:19:08;;;;;;;5.10;3.53;;;;;;;17.49;100.00;99400.19;4985461;28;20611;-61
2023/04/23 08:21:33;;;;;;;3.93;3.60;;;;;;;17.41;100.00;99394.91;4995344;28;20309;-60
2023/04/23 08:23:59;;;;;;;5.07;4.20;;;;;;;17.51;100.00;99394.84;4992000;28;20176;-61
2023/04/23 08:26:24;;;;;;;3.90;3.60;;;;;;;18.48;100.00;99387.28;4984674;28;20200;-60
2023/04/23 08:28:50;;;;;;;5.97;3.07;;;;;;;20.05;89.12;99393.94;4993015;28;20186;-61
2023/04/23 08:31:16;;;;;;;2.90;2.50;;;;;;;19.98;85.66;99387.72;4992568;28;20350;-61
2023/04/23 08:33:41;;;;;;;3.23;2.40;;;;;;;19.35;90.23;99395.91;4988721;28;20608;-62
2023/04/23 08:36:07;;;;;;;2.73;2.30;;;;;;;19.01;92.76;99393.31;4974441;28;20194;-64
2023/04/23 08:38:32;;;;;;;3.47;2.60;;;;;;;19.10;94.72;99384.56;4974340;28;20223;-62
2023/04/23 08:40:58;;;;;;;2.60;2.40;;;;;;;20.60;86.66;99381.16;4971110;28;20706;-62
2023/04/23 08:43:36;;;;;;;3.33;2.10;;;;;;;21.77;75.72;99383.97;4972450;28;20227;-62
2023/04/23 08:46:03;;;;;;;3.83;1.97;;;;;;;23.40;63.65;99388.78;4972612;28;20172;-62
2023/04/23 08:48:29;;;;;;;2.70;1.87;;;;;;;24.42;53.38;99386.94;4972499;28;20180;-62
2023/04/23 08:50:56;;;;;;;4.72;2.15;;;;;;;22.87;59.49;99395.00;4965478;28;20781;-62
2023/04/23 08:53:24;;;;;;;3.78;2.20;;;;;;;24.11;56.93;99387.28;4988204;28;20188;-63
2023/04/23 08:55:51;;;;;;;4.97;2.03;;;;;;;24.12;54.46;99387.09;4972523;28;20246;-62
2023/04/23 08:58:17;;;;;;;2.25;1.90;;;;;;;25.39;49.51;99394.94;4972053;28;20203;-63
2023/04/23 09:00:43;;;;;;;2.08;1.80;;;;;;;27.21;45.09;99383.31;4965086;28;20235;-62
2023/04/23 09:03:09;;;;;;;4.82;2.38;;;;;;;27.25;40.94;99393.44;4971567;28;20549;-62
2023/04/23 09:05:35;;;;;;;4.80;2.65;;;;;;;28.30;39.80;99382.38;4972135;28;20180;-62
2023/04/23 09:08:00;;;;;;;3.58;2.22;;;;;;;28.83;37.76;99383.69;4973358;28;20488;-62
2023/04/23 09:10:26;;;;;;;3.00;1.75;;;;;;;29.93;36.09;99380.22;4981645;28;20239;-62
2023/04/23 09:12:51;;;;;;;4.88;2.15;;;;;;;29.61;35.65;99380.50;4985189;28;20206;-63
2023/04/23 09:15:16;;;;;;;3.28;2.42;;;;;;;30.02;34.27;99378.84;4987807;28;20267;-63
2023/04/23 09:17:44;;;;;;;2.97;1.85;;;;;;;31.05;33.93;99381.03;4992473;28;20217;-62
2023/04/23 09:20:11;;;;;;;2.95;1.90;;;;;;;29.21;35.00;99371.25;4979647;28;20253;-63
2023/04/23 09:22:55;;;;;;;3.13;2.08;;;;;;;29.09;35.83;99359.78;4986872;28;20196;-63
2023/04/23 09:25:22;;;;;;;2.83;1.83;;;;;;;29.26;34.83;99374.00;4972576;28;20172;-62
2023/04/23 09:27:51;;;;;;;2.50;1.75;;;;;;;28.76;35.53;99368.94;4971727;28;20642;-63
2023/04/23 09:30:17;;;;;;;1.65;1.55;;;;;;;28.58;37.53;99364.41;4984426;28;20179;-62
2023/04/23 09:32:44;;;;;;;1.77;1.60;;;;;;;27.56;37.51;99352.25;5005156;28;20522;-63
2023/04/23 09:35:15;;;;;;;4.43;2.00;;;;;;;27.52;39.36;99351.88;4992315;28;20198;-62
2023/04/23 09:37:49;;;;;;;3.42;1.33;;;;;;;27.74;38.32;99344.41;4992004;28;20305;-62
2023/04/23 09:40:21;;;;;;;2.63;1.77;;;;;;;25.53;41.64;99344.97;4982313;28;20659;-62
2023/04/23 09:42:54;;;;;;;2.30;1.80;;;;;;;24.51;44.12;99340.28;4987317;28;20267;-63
2023/04/23 09:45:20;;;;;;;3.08;2.05;;;;;;;24.69;46.18;99336.34;4986362;28;20266;-62
2023/04/23 09:47:51;;;;;;;1.92;1.50;;;;;;;25.52;43.88;99336.25;4984349;28;20278;-62
2023/04/23 09:50:17;;;;;;;4.07;1.65;;;;;;;26.99;40.62;99337.94;4963605;28;20192;-63
2023/04/23 09:52:42;;;;;;;2.80;1.40;;;;;;;28.45;38.60;99330.97;4987848;28;20192;-62
2023/04/23 09:55:08;;;;;;;2.17;1.55;;;;;;;27.48;37.62;99329.56;4983069;28;20278;-62
2023/04/23 09:57:39;;;;;;;3.97;2.20;;;;;;;25.90;40.08;99334.84;4975440;28;20234;-61
2023/04/23 10:00:17;;;;;;;2.97;2.22;;;;;;;24.33;46.45;99333.69;4991334;28;20211;-62
2023/04/23 10:02:50;;;;;;;3.70;1.90;;;;;;;22.99;56.17;99326.34;5004662;28;20614;-60
2023/04/23 10:05:17;;;;;;;4.10;1.83;;;;;;;22.13;59.81;99331.97;4990625;28;20184;-61
2023/04/23 10:07:49;;;;;;;3.67;2.03;;;;;;;22.19;64.89;99315.56;4991069;28;20277;-61
2023/04/23 10:10:15;;;;;;;3.72;2.65;;;;;;;23.69;56.05;99316.19;4985426;28;20194;-61
2023/04/23 10:12:42;;;;;;;4.25;1.92;;;;;;;23.75;57.24;99325.13;4994205;28;20187;-61
2023/04/23 10:15:08;;;;;;;4.03;2.10;;;;;;;24.50;50.89;99312.38;4994055;28;20179;-61
2023/04/23 10:17:35;;;;;;;4.20;2.22;;;;;;;23.44;54.66;99310.50;4982425;28;20219;-61
2023/04/23 10:20:01;;;;;;;2.53;2.33;;;;;;;23.91;53.26;99313.56;4994066;28;20206;-76
2023/04/23 10:22:28;;;;;;;2.22;1.73;;;;;;;23.67;54.24;99313.75;5000226;28;20238;-76
2023/04/23 10:24:57;;;;;;;2.88;2.10;;;;;;;22.96;56.83;99316.22;4993807;28;20188;-75
2023/04/23 10:27:28;;;;;;;3.45;1.73;;;;;;;22.47;57.15;99317.63;4995073;28;20600;-76
2023/04/23 10:29:53;;;;;;;4.05;2.00;;;;;;;22.09;64.57;99321.88;4995361;28;20188;-76
2023/04/23 10:32:20;;;;;;;2.60;1.90;;;;;;;21.68;68.51;99318.78;5000318;28;20277;-75
2023/04/23 10:34:46;;;;;;;3.30;1.87;;;;;;;21.22;72.13;99311.69;4993862;28;20661;-76
2023/04/23 10:37:14;;;;;;;4.97;3.80;;;;;;;20.59;81.75;99301.97;4993965;28;20330;-76
2023/04/23 10:39:43;;;;;;;3.23;2.80;;;;;;;20.25;79.58;99303.03;4991684;28;20211;-76
2023/04/23 10:42:09;;;;;;;5.73;3.37;;;;;;;19.96;81.19;99296.53;4990706;28;20756;-76
2023/04/23 10:44:39;;;;;;;4.17;3.77;;;;;;;19.18;87.39;99293.34;4996810;28;20190;-78
2023/04/23 10:47:05;;;;;;;7.27;3.10;;;;;;;18.96;95.43;99291.34;4982472;28;20183;-79
2023/04/23 10:49:32;;;;;;;4.03;3.40;;;;;;;17.58;100.00;99297.91;4994561;28;20631;-80
2023/04/23 10:52:00;;;;;;;4.63;2.80;;;;;;;16.70;100.00;99294.97;4986746;28;20289;-76
2023/04/23 10:54:30;;;;;;;7.70;5.10;;;;;;;16.22;100.00;99296.75;4992976;28;20183;-81
2023/04/23 10:57:06;;;;;;;4.73;3.33;;;;;;;16.07;100.00;99286.81;4993689;28;20187;-76
2023/04/23 10:59:32;;;;;;;4.97;3.50;;;;;;;16.25;100.00;99283.53;4974398;28;20200;-74
2023/04/23 11:02:06;;;;;;;7.23;3.23;;;;;;;16.61;100.00;99281.88;4941983;28;20290;-80
2023/04/23 11:04:34;;;;;;;5.07;3.40;;;;;;;17.19;100.00;99276.56;4971412;28;20171;-74
2023/04/23 11:07:05;;;;;;;3.40;3.00;;;;;;;17.42;100.00;99269.16;4977865;28;20184;-76
2023/04/23 11:16:15;;;;;;;5.33;3.60;;;;;;;18.31;100.00;99245.78;4956655;28;20239;-65
2023/04/23 11:18:58;;;;;;;3.73;3.40;;;;;;;18.19;100.00;99245.22;4972010;28;20219;-64
2023/04/23 11:22:01;;;;;;;4.37;3.27;;;;;;;17.81;100.00;99244.59;4974505;28;20762;-63